KQWG/QWG METAR and TAF weather

Enter ICAO airport designator
Station Type Date Time Source
KQWG METAR 2019/03/15 05:55 UTC NOAA

KQWG 150555Z 27001KT 10SM CLR 10/03 A3022 RMK SLP222 WND DATA ESTMD LAST


Station Type Date Time Source
KQWG Decoded METAR 2019/03/15 05:55 UTC NOAA

Station name not available
Mar 15, 2019 - 01:55 AM EDT / 2019.03.15 0555 UTC
Wind: from the W (270 degrees) at 1 MPH (1 KT):0
Visibility: 10 mile(s):0
Sky conditions: clear
Temperature: 50 F (10 C)
Dew Point: 37 F (3 C)
Relative Humidity: 61%
Pressure (altimeter): 30.22 in. Hg (1023 hPa)
ob: KQWG 150555Z 27001KT 10SM CLR 10/03 A3022 RMK SLP222 WND DATA ESTMD LAST
cycle: 6

Station Type Date Time Source
KQWG TAF UTC NOAA

Error!

Example: see airport list